Time;durP1;ratioP1;P1;durP2;ratioP2;P2;SDS_P1;SDS_P2;PMS_P1;PMS_P2;Temp;Humidity;BMP_temperature;BMP_pressure;BME280_temperature;BME280_humidity;BME280_pressure;Samples;Min_cycle;Max_cycle;Signal;HPM_P1;HPM_P2
2021/12/25 00:00:54;;;;;;;18.70;16.57;;;6.30;99.90;;;7.28;100.00;96789.19;5217823;28;20194;-64
2021/12/25 00:03:27;;;;;;;19.93;16.83;;;6.40;99.90;;;7.25;100.00;96786.50;5220635;28;20323;-63
2021/12/25 00:06:01;;;;;;;23.07;18.50;;;6.30;99.90;;;7.21;100.00;96785.44;5221153;28;20209;-64
2021/12/25 00:08:34;;;;;;;20.67;16.70;;;6.30;99.90;;;7.17;100.00;96779.31;5223911;28;20319;-63
2021/12/25 00:11:08;;;;;;;21.97;18.10;;;6.40;99.90;;;7.21;100.00;96778.69;5222596;28;21034;-63
2021/12/25 00:13:43;;;;;;;17.27;15.57;;;6.40;99.90;;;7.22;100.00;96766.88;5222602;28;20201;-62
2021/12/25 00:16:17;;;;;;;19.13;16.17;;;6.50;99.90;;;7.25;100.00;96771.25;5221683;28;20207;-63
2021/12/25 00:18:50;;;;;;;16.60;14.57;;;6.50;99.90;;;7.27;100.00;96769.63;5219338;28;20224;-63
2021/12/25 00:21:25;;;;;;;17.93;15.80;;;6.50;99.90;;;7.30;100.00;96775.78;5223287;28;20215;-63
2021/12/25 00:23:58;;;;;;;17.43;15.53;;;6.60;99.90;;;7.33;100.00;96772.50;5219953;28;20217;-63
2021/12/25 00:26:45;;;;;;;16.97;14.63;;;6.60;99.90;;;7.37;100.00;96776.94;5224795;28;20683;-64
2021/12/25 00:32:39;;;;;;;17.63;15.73;;;6.50;99.90;;;7.39;100.00;96770.28;5204208;28;20211;-64
2021/12/25 00:35:12;;;;;;;19.43;17.33;;;6.50;99.90;;;7.37;100.00;96769.31;5219145;28;20205;-63
2021/12/25 00:37:46;;;;;;;18.50;16.53;;;6.40;99.90;;;7.36;100.00;96765.03;5223097;28;20193;-63
2021/12/25 00:40:19;;;;;;;25.53;20.70;;;6.40;99.90;;;7.27;100.00;96770.53;5221747;28;20212;-61
2021/12/25 00:42:52;;;;;;;18.17;15.93;;;6.30;99.90;;;7.21;100.00;96767.63;5220956;28;20209;-63
2021/12/25 00:45:25;;;;;;;21.00;18.03;;;6.40;99.90;;;7.18;100.00;96765.84;5220683;28;20202;-64
2021/12/25 00:48:00;;;;;;;25.37;19.70;;;6.40;99.90;;;7.18;100.00;96763.31;5221017;28;20257;-63
2021/12/25 00:50:33;;;;;;;23.00;19.80;;;6.40;99.90;;;7.17;100.00;96771.69;5223179;28;20584;-63
2021/12/25 00:53:06;;;;;;;22.97;19.70;;;6.40;99.90;;;7.18;100.00;96760.75;5222850;28;20677;-63
2021/12/25 00:55:39;;;;;;;24.77;20.40;;;6.30;99.90;;;7.17;100.00;96759.00;5221886;28;20215;-64
2021/12/25 00:58:13;;;;;;;23.00;20.43;;;6.40;99.90;;;7.18;100.00;96759.84;5221968;28;20221;-62
2021/12/25 01:00:46;;;;;;;21.43;17.77;;;6.40;99.90;;;7.17;100.00;96758.13;5223002;28;20217;-63
2021/12/25 01:03:21;;;;;;;25.17;20.50;;;6.40;99.90;;;7.18;100.00;96760.75;5219966;28;20566;-63
2021/12/25 01:05:54;;;;;;;21.87;18.03;;;6.40;99.90;;;7.20;100.00;96764.22;5220755;28;20197;-64
2021/12/25 01:08:27;;;;;;;28.20;21.60;;;6.40;99.90;;;7.22;100.00;96767.72;5219824;28;20213;-63
2021/12/25 01:11:00;;;;;;;28.07;20.13;;;6.50;99.90;;;7.22;100.00;96764.31;5223456;28;20194;-63
2021/12/25 01:13:38;;;;;;;18.47;16.57;;;6.40;99.90;;;7.25;100.00;96761.06;5221031;28;20316;-63
2021/12/25 01:16:25;;;;;;;18.97;16.97;;;6.50;99.90;;;7.27;100.00;96770.53;5221600;28;20212;-63
2021/12/25 01:19:30;;;;;;;20.63;17.07;;;6.50;99.90;;;7.30;100.00;96762.19;5219123;28;20228;-63
2021/12/25 01:25:16;;;;;;;16.23;12.77;;;6.50;99.90;;;7.25;100.00;96761.06;5204755;28;20207;-63
2021/12/25 01:30:47;;;;;;;17.50;13.07;;;6.30;99.90;;;7.18;100.00;96753.13;5219636;28;20201;-63
2021/12/25 01:33:49;;;;;;;18.47;13.90;;;6.30;99.90;;;7.12;100.00;96754.47;5217241;28;20583;-62
2021/12/25 01:39:29;;;;;;;15.53;12.27;;;6.40;99.90;;;7.09;100.00;96729.75;5183715;28;20226;-63
2021/12/25 01:47:43;;;;;;;16.57;12.00;;;6.30;99.90;;;7.09;100.00;96734.84;5219819;28;20291;-61
2021/12/25 01:47:52;;;;;;;18.47;13.57;;;6.40;99.90;;;7.05;100.00;96735.50;5219664;28;20613;-63
2021/12/25 01:50:28;;;;;;;14.80;11.50;;;6.30;99.90;;;7.04;100.00;96731.22;5219109;28;20193;-63
2021/12/25 01:53:02;;;;;;;16.03;12.07;;;6.30;99.90;;;7.07;100.00;96731.38;5221264;28;20200;-62
2021/12/25 01:55:36;;;;;;;15.73;11.73;;;6.30;99.90;;;7.07;100.00;96726.28;5221150;28;20577;-63
2021/12/25 01:58:09;;;;;;;17.60;13.17;;;6.30;99.90;;;7.08;100.00;96725.50;5220881;28;20598;-63
2021/12/25 02:00:46;;;;;;;15.13;11.90;;;6.40;99.90;;;7.11;100.00;96728.19;5220625;28;20217;-63
2021/12/25 02:03:23;;;;;;;15.47;12.00;;;6.40;99.90;;;7.12;100.00;96729.91;5219379;28;20255;-63
2021/12/25 02:05:58;;;;;;;11.70;10.43;;;6.40;99.90;;;7.14;100.00;96728.34;5221811;28;20572;-61
2021/12/25 02:08:34;;;;;;;15.67;11.47;;;6.40;99.90;;;7.15;100.00;96724.13;5219958;28;20216;-61
2021/12/25 02:11:10;;;;;;;14.63;11.63;;;6.40;99.90;;;7.17;100.00;96723.41;5220088;28;20189;-61
2021/12/25 02:13:46;;;;;;;12.20;10.37;;;6.40;99.90;;;7.17;100.00;96727.63;5221173;28;20192;-62
2021/12/25 02:16:23;;;;;;;13.93;10.37;;;6.40;99.90;;;7.15;100.00;96721.59;5220787;28;20239;-63
2021/12/25 02:19:02;;;;;;;13.57;10.40;;;6.40;99.90;;;7.12;100.00;96717.22;5219034;28;20221;-63
2021/12/25 02:21:38;;;;;;;11.57;8.50;;;6.30;99.90;;;7.08;100.00;96715.31;5222275;28;20280;-63
2021/12/25 02:24:13;;;;;;;10.50;8.90;;;6.30;99.90;;;7.08;100.00;96717.88;5220810;28;20584;-63
2021/12/25 02:26:47;;;;;;;9.97;8.90;;;6.30;99.90;;;7.09;100.00;96722.16;5222022;28;20200;-63
2021/12/25 02:29:20;;;;;;;10.80;8.83;;;6.40;99.90;;;7.12;100.00;96714.69;5220949;28;20243;-63
2021/12/25 02:31:53;;;;;;;13.77;9.73;;;6.30;99.90;;;7.10;100.00;96710.34;5220967;28;20202;-62
2021/12/25 02:34:26;;;;;;;10.80;9.33;;;6.30;99.90;;;7.06;100.00;96711.81;5218988;28;20212;-63
2021/12/25 02:37:01;;;;;;;13.97;10.87;;;6.30;99.90;;;7.05;100.00;96711.75;5222232;28;20197;-62
2021/12/25 02:39:34;;;;;;;12.20;10.90;;;6.20;99.90;;;7.05;100.00;96702.47;5220443;28;20600;-62
2021/12/25 02:42:08;;;;;;;12.63;10.00;;;6.20;99.90;;;7.05;100.00;96699.06;5219315;28;20650;-63
2021/12/25 02:44:42;;;;;;;11.90;9.57;;;6.20;99.90;;;7.00;100.00;96708.97;5221225;28;20208;-62
2021/12/25 02:47:20;;;;;;;16.13;12.07;;;6.20;99.90;;;6.97;100.00;96704.59;5218010;28;20672;-63
2021/12/25 02:49:54;;;;;;;12.73;9.50;;;6.20;99.90;;;6.93;100.00;96709.47;5220402;28;20708;-63
2021/12/25 02:52:28;;;;;;;11.47;10.23;;;6.20;99.90;;;6.92;100.00;96700.06;5220458;28;20198;-62
2021/12/25 02:55:01;;;;;;;16.90;11.93;;;6.20;99.90;;;6.92;100.00;96705.16;5218828;28;20200;-63
2021/12/25 02:57:34;;;;;;;14.30;10.23;;;6.20;99.90;;;6.92;100.00;96702.63;5220901;28;20200;-62
2021/12/25 03:00:09;;;;;;;10.77;9.27;;;6.20;99.90;;;6.95;100.00;96701.13;5221707;28;20224;-64
2021/12/25 03:02:42;;;;;;;10.50;9.47;;;6.30;99.90;;;6.98;100.00;96700.38;5219798;28;20197;-65
2021/12/25 03:05:16;;;;;;;12.73;8.73;;;6.30;99.90;;;7.00;100.00;96694.59;5219415;28;20204;-65
2021/12/25 03:07:50;;;;;;;18.57;10.63;;;6.40;99.90;;;7.05;100.00;96697.38;5225100;28;20196;-62
2021/12/25 03:10:23;;;;;;;10.63;8.77;;;6.40;99.90;;;7.06;100.00;96699.13;5224616;28;20197;-62
2021/12/25 03:13:05;;;;;;;14.07;10.83;;;6.40;99.90;;;7.06;100.00;96695.72;5220352;28;20197;-63
2021/12/25 03:15:45;;;;;;;15.10;11.20;;;6.40;99.90;;;7.06;100.00;96688.09;5224594;28;20197;-64
2021/12/25 03:18:23;;;;;;;15.10;10.73;;;6.40;99.90;;;7.08;100.00;96697.53;5223625;28;20693;-64
2021/12/25 03:21:00;;;;;;;12.47;9.33;;;6.30;99.90;;;7.05;100.00;96692.31;5224115;28;20685;-62
2021/12/25 03:23:37;;;;;;;11.63;10.03;;;6.30;99.90;;;7.05;100.00;96684.69;5222056;28;20340;-62
2021/12/25 03:26:11;;;;;;;20.77;10.13;;;6.30;99.90;;;6.97;100.00;96689.38;5222498;28;20203;-62
2021/12/25 03:28:46;;;;;;;12.00;8.40;;;6.30;99.90;;;6.93;100.00;96687.47;5226405;28;20699;-63
2021/12/25 03:31:20;;;;;;;11.60;9.67;;;6.20;99.90;;;6.95;100.00;96682.44;5223301;28;20289;-63
2021/12/25 03:33:55;;;;;;;13.73;9.87;;;6.20;99.90;;;6.96;100.00;96681.69;5224923;28;20193;-63
2021/12/25 03:36:28;;;;;;;13.93;10.57;;;6.20;99.90;;;6.96;100.00;96681.69;5224589;28;20208;-64
2021/12/25 03:39:04;;;;;;;14.10;9.83;;;6.20;99.90;;;6.97;100.00;96674.13;5225597;28;20225;-63
2021/12/25 03:41:37;;;;;;;9.23;7.90;;;6.20;99.90;;;6.89;100.00;96674.53;5224670;28;20209;-64
2021/12/25 03:44:10;;;;;;;8.67;7.57;;;6.20;99.90;;;6.83;100.00;96670.00;5223932;28;20197;-63
2021/12/25 03:46:44;;;;;;;9.87;7.57;;;6.20;99.90;;;6.88;100.00;96682.94;5224690;28;20653;-63
2021/12/25 03:49:27;;;;;;;14.93;9.20;;;6.20;99.90;;;6.89;100.00;96669.44;5221536;28;20230;-64
2021/12/25 03:57:50;;;;;;;11.40;8.80;;;6.20;99.90;;;6.92;100.00;96656.91;5224225;28;20205;-63
2021/12/25 04:00:31;;;;;;;9.13;8.23;;;6.20;99.90;;;6.90;100.00;96653.44;5224576;28;20213;-62
2021/12/25 04:03:09;;;;;;;11.53;9.33;;;6.20;99.90;;;6.91;100.00;96667.88;5224189;28;20203;-62
2021/12/25 04:05:45;;;;;;;9.23;8.07;;;6.20;99.90;;;6.92;100.00;96679.75;5225750;28;20205;-64
2021/12/25 04:08:23;;;;;;;10.73;8.27;;;6.20;99.90;;;6.96;100.00;96681.69;5223718;28;20225;-64
2021/12/25 04:11:03;;;;;;;8.83;7.67;;;6.30;99.90;;;6.99;100.00;96671.69;5225209;28;20200;-64
2021/12/25 04:13:36;;;;;;;10.53;9.30;;;6.30;99.90;;;7.05;100.00;96686.34;5223521;28;20847;-64
2021/12/25 04:16:09;;;;;;;9.97;8.37;;;6.30;99.90;;;7.05;100.00;96669.44;5222468;28;20198;-65
2021/12/25 04:18:42;;;;;;;12.13;8.93;;;6.20;99.90;;;7.02;100.00;96670.97;5224354;28;20244;-62
2021/12/25 04:21:16;;;;;;;11.27;8.90;;;6.20;99.90;;;6.94;100.00;96665.47;5224749;28;20224;-63
2021/12/25 04:23:49;;;;;;;9.63;8.63;;;6.20;99.90;;;6.96;100.00;96666.44;5222006;28;20208;-62
2021/12/25 04:26:25;;;;;;;14.47;9.43;;;6.30;99.90;;;6.88;100.00;96681.28;5223719;28;20316;-62
2021/12/25 04:29:06;;;;;;;9.03;7.53;;;6.20;99.90;;;6.88;100.00;96673.66;5223739;28;20221;-62
2021/12/25 04:32:05;;;;;;;9.10;8.20;;;6.20;99.90;;;6.88;100.00;96682.94;5221146;28;20212;-62
2021/12/25 04:49:41;;;;;;;9.63;8.07;;;6.30;99.90;;;6.93;100.00;96662.06;5222063;28;20223;-63
2021/12/25 05:03:46;;;;;;;8.27;7.37;;;6.20;99.90;;;6.90;100.00;96655.97;5222927;28;20570;-62
2021/12/25 05:06:22;;;;;;;8.10;7.30;;;6.20;99.90;;;6.87;100.00;96655.81;5221598;28;20208;-61
2021/12/25 05:08:56;;;;;;;8.93;7.30;;;6.20;99.90;;;6.85;100.00;96657.38;5216854;28;20217;-62
2021/12/25 05:11:29;;;;;;;11.07;8.07;;;6.20;99.90;;;6.86;100.00;96659.13;5221550;28;20192;-61
2021/12/25 05:14:04;;;;;;;6.93;6.23;;;6.20;99.90;;;6.85;100.00;96652.31;5221797;28;20292;-61
2021/12/25 05:16:38;;;;;;;6.87;6.23;;;6.20;99.90;;;6.86;100.00;96646.44;5224161;28;20661;-62
2021/12/25 05:19:11;;;;;;;7.80;6.83;;;6.20;99.90;;;6.88;100.00;96644.84;5219201;28;20247;-61
2021/12/25 05:21:44;;;;;;;8.10;7.30;;;6.20;99.90;;;6.94;100.00;96648.56;5223644;28;20228;-60
2021/12/25 05:24:18;;;;;;;8.93;7.90;;;6.30;99.90;;;6.97;100.00;96637.69;5218843;28;20206;-61
2021/12/25 05:26:56;;;;;;;11.10;8.10;;;6.30;99.90;;;6.97;100.00;96632.63;5222099;28;20198;-62
2021/12/25 05:29:33;;;;;;;11.23;7.87;;;6.30;99.90;;;6.98;100.00;96627.63;5222137;28;20748;-62
2021/12/25 05:32:08;;;;;;;10.57;7.70;;;6.30;99.90;;;6.87;100.00;96630.41;5220207;28;20199;-62
2021/12/25 05:34:41;;;;;;;9.37;7.93;;;6.20;99.90;;;6.90;100.00;96625.50;5224457;28;20517;-62
2021/12/25 05:37:15;;;;;;;12.00;7.77;;;6.20;99.90;;;6.87;100.00;96625.34;5222049;28;20208;-61
2021/12/25 05:39:50;;;;;;;9.20;7.60;;;6.10;99.90;;;6.85;100.00;96632.88;5223110;28;20248;-62
2021/12/25 05:42:24;;;;;;;7.43;6.67;;;6.10;99.90;;;6.84;100.00;96626.06;5222014;28;20697;-60
2021/12/25 05:44:58;;;;;;;7.93;7.13;;;6.20;99.90;;;6.86;100.00;96633.72;5216660;28;20541;-62
2021/12/25 05:47:33;;;;;;;11.87;8.23;;;6.20;99.90;;;6.89;100.00;96629.66;5222624;28;20215;-61
2021/12/25 05:50:07;;;;;;;14.93;9.93;;;6.20;99.90;;;6.91;100.00;96632.31;5221143;28;20863;-62
2021/12/25 05:52:40;;;;;;;12.17;9.13;;;6.30;99.90;;;6.95;100.00;96621.50;5220306;28;20200;-62
2021/12/25 05:55:13;;;;;;;11.57;9.20;;;6.30;99.90;;;7.02;100.00;96618.47;5219855;28;20197;-61
2021/12/25 05:57:46;;;;;;;13.27;9.77;;;6.40;99.90;;;7.08;100.00;96616.25;5222049;28;20654;-61
2021/12/25 06:00:22;;;;;;;12.30;9.90;;;6.40;99.90;;;7.11;100.00;96621.47;5222051;28;20685;-62
2021/12/25 06:02:56;;;;;;;15.47;11.53;;;6.50;99.90;;;7.14;100.00;96615.69;5219939;28;20222;-61
2021/12/25 06:05:30;;;;;;;15.17;10.60;;;6.50;99.90;;;7.18;100.00;96617.56;5220995;28;20208;-61
2021/12/25 06:08:05;;;;;;;15.57;11.07;;;6.50;99.90;;;7.18;100.00;96617.56;5220391;28;20213;-61
2021/12/25 06:10:38;;;;;;;13.30;10.33;;;6.50;99.90;;;7.16;100.00;96614.97;5221420;28;20193;-62
2021/12/25 06:13:16;;;;;;;17.93;12.10;;;6.50;99.90;;;7.16;100.00;96616.63;5218531;28;20202;-61
2021/12/25 06:15:51;;;;;;;18.33;11.83;;;6.50;99.90;;;7.15;100.00;96620.84;5221480;28;20197;-61
2021/12/25 06:18:26;;;;;;;13.43;10.20;;;6.50;99.90;;;7.15;100.00;96614.88;5221259;28;20219;-62
2021/12/25 06:20:59;;;;;;;15.90;10.80;;;6.40;99.90;;;7.20;100.00;96623.59;5220941;28;20196;-62
2021/12/25 06:23:32;;;;;;;13.27;10.17;;;6.40;99.90;;;7.11;100.00;96616.41;5221760;28;20206;-61
2021/12/25 06:26:05;;;;;;;13.63;10.60;;;6.40;99.90;;;7.10;100.00;96617.19;5219607;28;20296;-62
2021/12/25 06:28:38;;;;;;;13.83;10.60;;;6.40;99.90;;;7.09;100.00;96625.59;5220234;28;20217;-60
2021/12/25 06:31:11;;;;;;;12.87;11.50;;;6.40;99.90;;;7.17;100.00;96610.75;5221651;28;20209;-61
2021/12/25 06:33:46;;;;;;;14.73;11.80;;;6.50;99.90;;;7.16;100.00;96611.56;5219419;28;20202;-62
2021/12/25 06:36:19;;;;;;;20.67;13.53;;;6.50;99.90;;;7.27;100.00;96615.50;5219864;28;20196;-62
2021/12/25 06:38:52;;;;;;;19.80;13.97;;;6.60;99.90;;;7.38;100.00;96614.38;5221382;28;20229;-61
2021/12/25 06:41:25;;;;;;;17.43;13.23;;;6.80;99.90;;;7.58;100.00;96607.69;5222184;28;20204;-62
2021/12/25 06:43:58;;;;;;;16.67;13.47;;;7.00;99.90;;;7.71;100.00;96614.22;5224471;28;20193;-62
2021/12/25 06:46:31;;;;;;;18.37;13.93;;;7.10;99.90;;;7.70;100.00;96609.06;5224624;28;20216;-62
2021/12/25 06:49:06;;;;;;;16.83;12.93;;;7.00;99.90;;;7.64;100.00;96607.09;5225651;28;20228;-61
2021/12/25 06:51:39;;;;;;;24.20;12.97;;;7.00;99.90;;;7.63;100.00;96603.69;5225804;28;20197;-61
2021/12/25 06:54:12;;;;;;;16.47;12.20;;;7.00;99.90;;;7.62;100.00;96604.50;5225679;28;20201;-62
2021/12/25 06:56:47;;;;;;;16.27;12.07;;;7.00;99.90;;;7.57;100.00;96608.47;5225722;28;20251;-62
2021/12/25 06:59:22;;;;;;;17.50;12.67;;;6.90;99.90;;;7.57;100.00;96607.63;5222419;28;20231;-62
2021/12/25 07:01:55;;;;;;;14.53;11.50;;;6.90;99.90;;;7.59;100.00;96603.47;5223409;28;20213;-62
2021/12/25 07:04:29;;;;;;;14.33;11.27;;;6.90;99.90;;;7.57;100.00;96603.41;5224994;28;20247;-62
2021/12/25 07:07:03;;;;;;;18.57;11.77;;;6.90;99.90;;;7.57;100.00;96607.63;5222716;28;20579;-61
2021/12/25 07:09:36;;;;;;;20.00;13.37;;;6.90;99.90;;;7.57;100.00;96611.03;5226078;28;20221;-62
2021/12/25 07:12:10;;;;;;;17.20;12.87;;;6.90;99.90;;;7.58;100.00;96615.34;5225218;28;20668;-62
2021/12/25 07:14:43;;;;;;;13.63;10.57;;;6.90;99.90;;;7.57;100.00;96605.94;5224914;28;20201;-62
2021/12/25 07:17:16;;;;;;;19.73;12.33;;;6.90;99.90;;;7.57;100.00;96611.03;5223504;28;20212;-61
2021/12/25 07:19:50;;;;;;;12.70;9.97;;;6.90;99.90;;;7.55;100.00;96607.53;5224262;28;20693;-62
2021/12/25 07:22:23;;;;;;;12.27;10.27;;;6.80;99.90;;;7.54;100.00;96608.34;5222318;28;20221;-62
2021/12/25 07:24:57;;;;;;;19.40;11.47;;;6.80;99.90;;;7.53;100.00;96614.22;5222271;28;20213;-62
2021/12/25 07:27:30;;;;;;;13.00;10.03;;;6.80;99.90;;;7.54;100.00;96617.63;5224400;28;20224;-62
2021/12/25 07:30:05;;;;;;;11.33;9.37;;;6.80;99.90;;;7.53;100.00;96614.22;5222711;28;20221;-62
2021/12/25 07:32:38;;;;;;;11.83;9.90;;;6.80;99.90;;;7.54;100.00;96613.41;5224573;28;20193;-62
2021/12/25 07:35:13;;;;;;;11.07;9.33;;;6.80;99.90;;;7.54;100.00;96613.41;5223693;28;20205;-62
2021/12/25 07:37:46;;;;;;;16.43;11.03;;;6.80;99.90;;;7.54;100.00;96623.59;5223282;28;20200;-62
2021/12/25 07:40:19;;;;;;;13.67;9.83;;;6.80;99.90;;;7.49;100.00;96621.63;5218979;28;20704;-62
2021/12/25 07:42:54;;;;;;;13.53;10.27;;;6.80;99.90;;;7.47;100.00;96630.84;5224744;28;20221;-61
2021/12/25 07:45:27;;;;;;;12.60;9.23;;;6.70;99.90;;;7.47;100.00;96625.75;5221645;28;20667;-62
2021/12/25 07:48:02;;;;;;;14.33;10.33;;;6.70;99.90;;;7.41;100.00;96636.50;5220944;28;20622;-62
2021/12/25 07:50:37;;;;;;;13.63;9.87;;;6.70;99.90;;;7.43;100.00;96637.44;5222611;28;20192;-62
2021/12/25 07:53:10;;;;;;;18.30;11.93;;;6.70;99.90;;;7.42;100.00;96645.88;5222120;28;20211;-62
2021/12/25 07:55:44;;;;;;;11.97;10.67;;;6.70;99.90;;;7.43;100.00;96645.06;5220747;28;20217;-60
2021/12/25 07:58:19;;;;;;;14.87;10.30;;;6.70;99.90;;;7.48;100.00;96647.84;5221091;28;20216;-62
2021/12/25 08:00:53;;;;;;;12.33;9.40;;;6.60;99.90;;;7.42;100.00;96661.13;5222516;28;20211;-61
2021/12/25 08:03:26;;;;;;;10.33;9.23;;;6.60;99.90;;;7.40;100.00;96663.59;5219694;28;20751;-61
2021/12/25 08:06:01;;;;;;;10.53;8.83;;;6.60;99.90;;;7.39;100.00;96655.91;5219282;28;21566;-62
2021/12/25 08:08:34;;;;;;;13.00;9.43;;;6.60;99.90;;;7.40;100.00;96670.34;5222951;28;20227;-62
2021/12/25 08:11:07;;;;;;;11.23;10.03;;;6.70;99.90;;;7.42;100.00;96669.63;5220073;28;20205;-62
2021/12/25 08:13:40;;;;;;;12.37;10.37;;;6.70;99.90;;;7.43;100.00;96667.94;5220272;28;20193;-62
2021/12/25 08:16:13;;;;;;;12.77;9.80;;;6.70;99.90;;;7.45;100.00;96669.78;5220233;28;20657;-62
2021/12/25 08:18:46;;;;;;;11.50;9.67;;;6.80;99.90;;;7.49;100.00;96675.88;5221046;28;20228;-62
2021/12/25 08:21:21;;;;;;;13.93;10.07;;;6.80;99.90;;;7.52;100.00;96676.03;5221531;28;20212;-62
2021/12/25 08:23:54;;;;;;;13.03;10.60;;;6.90;99.90;;;7.55;100.00;96676.19;5225486;28;20216;-62
2021/12/25 08:26:27;;;;;;;15.00;10.77;;;6.90;99.90;;;7.57;100.00;96677.13;5220634;28;20201;-62
2021/12/25 08:29:00;;;;;;;16.37;12.90;;;6.90;99.90;;;7.63;100.00;96674.00;5221056;28;20213;-61
2021/12/25 08:31:34;;;;;;;17.53;12.67;;;7.00;99.90;;;7.67;100.00;96684.44;5219541;28;20201;-62
2021/12/25 08:34:07;;;;;;;16.50;12.13;;;7.00;99.90;;;7.73;100.00;96688.94;5221910;28;20535;-63
2021/12/25 08:36:42;;;;;;;16.80;14.27;;;7.10;99.90;;;7.78;100.00;96694.22;5220893;28;20197;-62
2021/12/25 08:39:15;;;;;;;17.77;14.13;;;7.10;99.90;;;7.82;100.00;96698.69;5221072;28;20228;-63
2021/12/25 08:41:48;;;;;;;26.40;15.50;;;7.20;99.90;;;7.86;100.00;96693.81;5222144;28;20197;-63
2021/12/25 08:44:33;;;;;;;22.93;16.07;;;7.30;99.90;;;7.94;100.00;96696.72;5219674;28;20217;-63
2021/12/25 08:47:10;;;;;;;22.53;14.83;;;7.30;99.90;;;8.00;100.00;96703.78;5217653;28;20572;-62
2021/12/25 08:49:44;;;;;;;20.97;14.40;;;7.40;99.90;;;8.00;100.00;96707.19;5221791;28;20579;-62
2021/12/25 08:52:22;;;;;;;25.07;14.87;;;7.40;99.90;;;8.06;100.00;96717.66;5219954;28;20205;-61
2021/12/25 08:54:55;;;;;;;24.00;14.30;;;7.30;99.90;;;8.03;100.00;96712.44;5216415;28;20193;-62
2021/12/25 08:57:30;;;;;;;20.17;14.20;;;7.30;99.90;;;7.98;100.00;96713.00;5220763;28;20282;-62
2021/12/25 09:00:06;;;;;;;20.97;16.20;;;7.30;99.90;;;7.97;100.00;96719.78;5221870;28;20221;-62
2021/12/25 09:02:40;;;;;;;19.37;15.90;;;7.30;99.90;;;7.97;100.00;96717.22;5221054;28;20197;-62
2021/12/25 09:05:13;;;;;;;20.17;16.00;;;7.30;99.90;;;8.01;100.00;96714.06;5219747;28;20205;-62
2021/12/25 09:07:48;;;;;;;21.03;16.23;;;7.30;99.90;;;8.01;100.00;96711.50;5215187;28;20198;-62
2021/12/25 09:10:22;;;;;;;37.03;23.70;;;7.30;99.90;;;8.08;100.00;96715.22;5221737;28;20200;-62
2021/12/25 09:12:55;;;;;;;32.57;22.17;;;7.40;99.90;;;8.09;100.00;96714.41;5221398;28;20197;-62
2021/12/25 09:15:29;;;;;;;26.90;19.37;;;7.40;99.90;;;8.12;100.00;96720.50;5218572;28;20204;-63
2021/12/25 09:18:02;;;;;;;22.13;17.57;;;7.40;99.90;;;8.14;100.00;96712.94;5221298;28;20213;-64
2021/12/25 09:20:36;;;;;;;28.87;20.73;;;7.50;99.90;;;8.20;100.00;96720.00;5220914;28;20209;-62
2021/12/25 09:23:10;;;;;;;25.20;18.97;;;7.50;99.90;;;8.25;100.00;96723.66;5219564;28;20248;-63
2021/12/25 09:25:43;;;;;;;21.00;16.47;;;7.50;99.90;;;8.27;100.00;96722.03;5219897;28;20201;-63
2021/12/25 09:28:20;;;;;;;21.37;15.43;;;7.60;99.90;;;8.27;100.00;96722.03;5218897;28;20225;-63
2021/12/25 09:30:53;;;;;;;19.80;14.10;;;7.60;99.90;;;8.29;100.00;96718.75;5219726;28;20206;-62
2021/12/25 09:33:26;;;;;;;22.90;15.43;;;7.60;99.90;;;8.35;100.00;96723.25;5218198;28;20209;-63
2021/12/25 09:36:02;;;;;;;26.47;17.50;;;7.70;99.90;;;8.38;100.00;96728.50;5218846;28;20204;-63
2021/12/25 09:38:36;;;;;;;24.60;20.80;;;7.70;99.90;;;8.44;100.00;96723.75;5218683;28;20621;-62
2021/12/25 09:41:10;;;;;;;34.97;26.90;;;7.80;99.90;;;8.51;100.00;96728.31;5218231;28;20212;-62
2021/12/25 09:43:47;;;;;;;26.40;21.90;;;7.90;99.90;;;8.57;100.00;96731.13;5218649;28;20220;-61
2021/12/25 09:46:21;;;;;;;23.60;20.90;;;7.90;99.90;;;8.62;100.00;96727.94;5218899;28;20205;-63
2021/12/25 09:48:55;;;;;;;34.63;24.33;;;8.00;99.90;;;8.68;100.00;96735.88;5218797;28;20235;-63
2021/12/25 09:51:28;;;;;;;29.43;20.73;;;8.00;99.90;;;8.71;100.00;96729.22;5218562;28;20206;-63
2021/12/25 09:54:07;;;;;;;25.30;19.47;;;8.00;99.90;;;8.75;100.00;96723.47;5218170;28;20197;-63
2021/12/25 09:56:43;;;;;;;29.63;21.17;;;8.10;99.90;;;8.75;100.00;96732.78;5221273;28;20653;-62
2021/12/25 09:59:17;;;;;;;25.23;20.63;;;8.10;99.90;;;8.75;100.00;96730.22;5217247;28;20314;-63
2021/12/25 10:01:54;;;;;;;26.30;20.60;;;8.10;99.90;;;8.75;100.00;96731.09;5216425;28;20584;-63
2021/12/25 10:04:36;;;;;;;27.13;20.55;;;8.10;99.90;;;8.74;100.00;96728.50;5217631;28;20307;-64
2021/12/25 10:07:19;;;;;;;20.95;18.70;;;8.00;99.90;;;8.73;100.00;96719.13;5219544;28;20240;-63
2021/12/25 10:10:10;;;;;;;23.20;19.80;;;8.00;99.90;;;8.71;100.00;96720.72;5218514;28;20221;-63
2021/12/25 10:12:46;;;;;;;23.20;19.20;;;7.90;99.90;;;8.70;100.00;96729.16;5220119;28;20208;-63
2021/12/25 10:15:25;;;;;;;28.55;22.85;;;7.90;99.90;;;8.70;100.00;96731.69;5223641;28;20576;-63
2021/12/25 10:18:00;;;;;;;21.30;19.10;;;8.00;99.90;;;8.69;100.00;96724.88;5230305;28;20295;-63
2021/12/25 10:20:36;;;;;;;21.27;17.95;;;8.00;99.90;;;8.71;100.00;96725.81;5227130;28;20193;-63
2021/12/25 10:23:13;;;;;;;30.63;21.38;;;8.00;99.90;;;8.70;100.00;96724.94;5226950;28;20204;-63
2021/12/25 10:25:53;;;;;;;23.17;19.33;;;7.90;99.90;;;8.71;100.00;96720.72;5225502;28;20201;-63
2021/12/25 10:28:31;;;;;;;23.33;19.08;;;7.90;99.90;;;8.69;100.00;96727.41;5225623;28;20365;-63
2021/12/25 10:31:08;;;;;;;26.33;19.73;;;8.00;99.90;;;8.73;100.00;96726.78;5227777;28;20209;-63
2021/12/25 10:33:45;;;;;;;27.27;19.67;;;7.90;99.90;;;8.71;100.00;96720.72;5227201;28;20193;-62
2021/12/25 10:36:27;;;;;;;29.83;25.57;;;8.00;99.90;;;8.74;100.00;96720.84;5225146;28;20204;-62
2021/12/25 10:39:04;;;;;;;23.05;20.15;;;8.00;99.90;;;8.77;100.00;96711.66;5225210;28;20242;-62
2021/12/25 10:41:42;;;;;;;24.10;20.10;;;8.10;99.90;;;8.88;100.00;96713.84;5225460;28;20200;-62
2021/12/25 10:44:20;;;;;;;24.63;19.97;;;8.20;99.90;;;8.96;100.00;96713.38;5225589;28;20208;-62
2021/12/25 10:46:57;;;;;;;25.70;22.05;;;8.30;99.90;;;9.14;100.00;96702.25;5227269;28;20549;-62
2021/12/25 10:49:33;;;;;;;29.45;24.30;;;8.30;99.90;;;9.26;100.00;96707.88;5225499;28;20264;-62
2021/12/25 10:52:15;;;;;;;46.80;41.70;;;8.40;99.90;;;9.32;100.00;96705.59;5227234;28;20200;-62
2021/12/25 10:54:58;;;;;;;52.83;42.05;;;8.50;99.90;;;9.37;100.00;96701.56;5226624;28;20197;-62
2021/12/25 10:57:37;;;;;;;24.50;20.23;;;8.60;99.90;;;9.47;100.00;96695.16;5226452;28;20199;-62
2021/12/25 11:00:14;;;;;;;22.00;16.38;;;8.60;99.90;;;9.50;100.00;96697.88;5221804;28;20193;-62
2021/12/25 11:02:50;;;;;;;18.98;13.93;;;8.60;99.90;;;9.48;100.00;96695.22;5226246;28;20193;-65
2021/12/25 11:05:27;;;;;;;15.98;13.98;;;8.60;99.90;;;9.58;100.00;96696.47;5226499;28;20520;-63
2021/12/25 11:08:07;;;;;;;15.75;14.13;;;8.70;99.90;;;9.61;100.00;96690.63;5226294;28;20220;-63
2021/12/25 11:10:46;;;;;;;24.60;20.88;;;8.70;99.90;;;9.57;100.00;96689.66;5225008;28;20197;-63
2021/12/25 11:13:24;;;;;;;16.67;14.95;;;8.80;99.90;;;9.56;100.00;96699.81;5224629;28;20222;-63
2021/12/25 11:16:05;;;;;;;13.15;11.80;;;8.70;99.90;;;9.56;100.00;96700.66;5225871;28;20201;-63
2021/12/25 11:19:01;;;;;;;11.50;10.40;;;8.70;99.90;;;9.50;100.00;96696.97;5225037;28;20696;-63
2021/12/25 11:21:37;;;;;;;11.90;9.40;;;8.70;99.90;;;9.43;100.00;96691.63;5226503;28;20193;-63
2021/12/25 11:24:14;;;;;;;9.57;8.60;;;8.60;99.90;;;9.40;100.00;96691.50;5223904;28;20227;-63
2021/12/25 11:26:50;;;;;;;9.00;8.25;;;8.70;99.90;;;9.41;100.00;96687.25;5222065;28;20203;-63
2021/12/25 11:29:28;;;;;;;9.98;9.07;;;8.70;99.90;;;9.44;100.00;96687.38;5223301;28;20712;-63
2021/12/25 11:32:02;;;;;;;10.73;9.75;;;8.70;99.90;;;9.45;100.00;96684.91;5222596;28;20674;-63
2021/12/25 11:34:35;;;;;;;11.77;10.77;;;8.60;99.90;;;9.45;100.00;96682.34;5221876;28;20197;-63
2021/12/25 11:37:09;;;;;;;12.45;11.25;;;8.60;99.90;;;9.46;100.00;96678.13;5222212;28;20198;-63